Time;durP1;ratioP1;P1;durP2;ratioP2;P2;SDS_P1;SDS_P2;PMS_P1;PMS_P2;Temp;Humidity;BMP_temperature;BMP_pressure;BME280_temperature;BME280_humidity;BME280_pressure;Samples;Min_cycle;Max_cycle;Signal;HPM_P1;HPM_P2
2022/10/14 00:00:38;;;;;;;10.70;5.13;;;;;10.10;94232.00;;;;7396753;19;20630;-75
2022/10/14 00:03:12;;;;;;;9.90;5.68;;;;;10.00;94225.00;;;;7395284;19;20141;-75
2022/10/14 00:05:47;;;;;;;11.25;5.50;;;;;10.10;94222.00;;;;7395462;19;20136;-77
2022/10/14 00:08:15;;;;;;;9.98;5.07;;;;;10.10;94227.00;;;;7397229;19;20639;-75
2022/10/14 00:10:47;;;;;;;9.02;5.38;;;;;10.10;94225.00;;;;7399286;19;20762;-77
2022/10/14 00:13:21;;;;;;;8.13;4.78;;;;;10.10;94232.00;;;;7395714;19;20133;-76
2022/10/14 00:15:48;;;;;;;9.55;4.90;;;;;10.10;94231.00;;;;7395348;19;20444;-76
2022/10/14 00:18:16;;;;;;;11.23;4.72;;;;;10.10;94225.00;;;;7395440;19;20157;-75
2022/10/14 00:21:00;;;;;;;11.48;5.18;;;;;10.10;94223.00;;;;7395324;19;20689;-75
2022/10/14 00:23:28;;;;;;;12.60;5.05;;;;;10.40;94230.00;;;;7396446;19;20231;-76
2022/10/14 00:26:05;;;;;;;9.35;5.20;;;;;10.30;94231.00;;;;7396333;19;20441;-76
2022/10/14 00:28:33;;;;;;;12.25;5.57;;;;;10.30;94233.00;;;;7397613;19;20555;-76
2022/10/14 00:31:01;;;;;;;8.88;5.05;;;;;10.40;94242.00;;;;7398692;19;20155;-76
2022/10/14 00:33:35;;;;;;;11.40;6.15;;;;;10.30;94241.00;;;;7395720;19;20133;-76
2022/10/14 00:36:05;;;;;;;8.98;5.10;;;;;10.30;94229.00;;;;7398081;19;20493;-75
2022/10/14 00:38:33;;;;;;;7.60;4.88;;;;;10.40;94241.00;;;;7394759;19;20141;-75
2022/10/14 00:41:11;;;;;;;5.32;4.68;;;;;10.40;94247.00;;;;7399298;19;20652;-76
2022/10/14 00:44:04;;;;;;;15.27;5.05;;;;;10.50;94232.00;;;;7397097;19;20584;-76
2022/10/14 00:46:41;;;;;;;6.13;4.57;;;;;10.50;94235.00;;;;7398036;19;20145;-76
2022/10/14 00:49:24;;;;;;;6.68;4.57;;;;;10.40;94235.00;;;;7397402;19;20580;-76
2022/10/14 00:52:16;;;;;;;10.57;4.75;;;;;10.50;94238.00;;;;7395785;19;20125;-76
2022/10/14 00:55:00;;;;;;;7.32;4.70;;;;;10.60;94231.00;;;;7396164;19;20588;-76
2022/10/14 00:57:37;;;;;;;10.05;4.65;;;;;10.80;94234.00;;;;7394151;19;20143;-76
2022/10/14 01:00:10;;;;;;;11.27;5.10;;;;;10.80;94235.00;;;;7392943;19;20608;-75
2022/10/14 01:02:45;;;;;;;5.53;4.32;;;;;10.60;94232.00;;;;7393350;19;20145;-75
2022/10/14 01:05:15;;;;;;;6.93;4.03;;;;;10.50;94239.00;;;;7395916;19;20148;-76
2022/10/14 01:08:14;;;;;;;6.90;4.63;;;;;10.40;94240.00;;;;7392709;19;20137;-76
2022/10/14 01:11:27;;;;;;;7.82;5.10;;;;;10.50;94236.00;;;;7394683;19;20133;-76
2022/10/14 01:14:07;;;;;;;5.63;4.47;;;;;10.40;94231.00;;;;7393442;19;20156;-76
2022/10/14 01:17:05;;;;;;;8.23;4.70;;;;;10.40;94228.00;;;;7391217;19;20609;-75
2022/10/14 01:19:47;;;;;;;9.25;4.45;;;;;10.40;94221.00;;;;7395604;19;20615;-77
2022/10/14 01:22:31;;;;;;;4.90;4.05;;;;;10.40;94225.00;;;;7392872;19;20141;-75
2022/10/14 01:25:08;;;;;;;8.82;4.85;;;;;10.50;94218.00;;;;7396310;19;20642;-77
2022/10/14 01:27:42;;;;;;;6.32;4.43;;;;;10.40;94221.00;;;;7392575;19;20144;-75
2022/10/14 01:30:23;;;;;;;7.78;4.60;;;;;10.40;94222.00;;;;7394172;19;20174;-76
2022/10/14 01:33:10;;;;;;;4.47;3.80;;;;;10.40;94217.00;;;;7392997;19;20127;-75
2022/10/14 01:35:56;;;;;;;5.22;4.72;;;;;10.40;94219.00;;;;7395052;19;20140;-75
2022/10/14 01:39:04;;;;;;;9.20;4.55;;;;;10.40;94220.00;;;;7398211;19;20149;-75
2022/10/14 01:41:37;;;;;;;6.82;4.28;;;;;10.40;94218.00;;;;7392615;19;20157;-76
2022/10/14 01:44:13;;;;;;;11.43;4.57;;;;;10.40;94210.00;;;;7391854;19;20135;-75
2022/10/14 01:46:45;;;;;;;8.63;4.65;;;;;10.40;94206.00;;;;7394051;19;20147;-75
2022/10/14 01:49:28;;;;;;;7.70;4.60;;;;;10.40;94209.00;;;;7393621;19;20125;-76
2022/10/14 01:52:04;;;;;;;6.38;4.05;;;;;10.50;94208.00;;;;7390879;19;20472;-75
2022/10/14 01:54:41;;;;;;;7.55;3.90;;;;;10.40;94207.00;;;;7391763;19;20638;-76
2022/10/14 01:57:20;;;;;;;11.73;4.65;;;;;10.40;94210.00;;;;7394358;19;20117;-75
2022/10/14 01:59:58;;;;;;;7.20;4.22;;;;;10.50;94205.00;;;;7392535;19;20136;-76
2022/10/14 02:02:28;;;;;;;7.57;4.28;;;;;10.60;94205.00;;;;7394643;19;20149;-75
2022/10/14 02:04:59;;;;;;;7.40;4.80;;;;;10.50;94209.00;;;;7393735;19;20156;-76
2022/10/14 02:07:41;;;;;;;8.10;4.88;;;;;10.50;94196.00;;;;7396118;19;20498;-75
2022/10/14 02:10:41;;;;;;;8.00;4.85;;;;;10.50;94200.00;;;;7391139;19;20140;-77
2022/10/14 02:13:25;;;;;;;7.68;4.50;;;;;10.60;94196.00;;;;7391724;19;20137;-76
2022/10/14 02:16:11;;;;;;;7.90;5.05;;;;;10.60;94188.00;;;;7390863;19;20132;-76
2022/10/14 02:19:01;;;;;;;13.05;5.47;;;;;10.60;94180.00;;;;7390862;19;20145;-75
2022/10/14 02:21:42;;;;;;;11.32;5.47;;;;;10.60;94180.00;;;;7391550;19;20146;-75
2022/10/14 02:24:36;;;;;;;9.48;5.82;;;;;10.60;94185.00;;;;7390996;19;20139;-75
2022/10/14 02:27:09;;;;;;;9.02;5.15;;;;;10.60;94167.00;;;;7393218;19;20151;-75
2022/10/14 02:29:52;;;;;;;11.10;5.13;;;;;10.50;94163.00;;;;7390327;19;20172;-76
2022/10/14 02:32:27;;;;;;;8.75;4.68;;;;;10.50;94171.00;;;;7391614;19;20627;-76
2022/10/14 02:35:04;;;;;;;11.05;5.13;;;;;10.50;94162.00;;;;7389896;19;20506;-75
2022/10/14 02:37:33;;;;;;;9.48;5.28;;;;;10.50;94151.00;;;;7392213;19;20216;-76
2022/10/14 02:40:22;;;;;;;8.77;5.13;;;;;10.50;94159.00;;;;7390337;19;20200;-75
2022/10/14 02:42:49;;;;;;;8.43;4.72;;;;;10.50;94155.00;;;;7391883;19;20172;-75
2022/10/14 02:45:28;;;;;;;10.07;5.25;;;;;10.40;94152.00;;;;7391219;19;20188;-75
2022/10/14 02:47:56;;;;;;;6.93;5.50;;;;;10.40;94159.00;;;;7394192;19;20128;-76
2022/10/14 02:50:28;;;;;;;8.40;5.78;;;;;10.50;94158.00;;;;7389235;19;20121;-75
2022/10/14 02:53:11;;;;;;;10.00;5.72;;;;;10.40;94159.00;;;;7393840;19;20129;-75
2022/10/14 02:55:40;;;;;;;8.48;5.68;;;;;10.40;94154.00;;;;7393259;19;20578;-75
2022/10/14 02:58:14;;;;;;;10.20;5.18;;;;;10.40;94153.00;;;;7392192;19;20169;-76
2022/10/14 03:00:41;;;;;;;8.00;5.15;;;;;10.40;94152.00;;;;7390058;19;20140;-75
2022/10/14 03:03:09;;;;;;;8.10;5.03;;;;;10.30;94145.00;;;;7392569;19;20158;-74
2022/10/14 03:05:43;;;;;;;12.45;5.35;;;;;10.40;94136.00;;;;7389317;19;20487;-75
2022/10/14 03:08:12;;;;;;;10.50;5.45;;;;;10.30;94142.00;;;;7393141;19;20240;-75
2022/10/14 03:10:40;;;;;;;7.82;5.93;;;;;10.30;94138.00;;;;7390501;19;20180;-75
2022/10/14 03:13:14;;;;;;;10.75;6.32;;;;;10.30;94122.00;;;;7392509;19;20156;-76
2022/10/14 03:15:42;;;;;;;13.50;5.53;;;;;10.40;94135.00;;;;7391823;19;20129;-77
2022/10/14 03:18:09;;;;;;;11.30;5.53;;;;;10.40;94129.00;;;;7390226;19;20489;-76
2022/10/14 03:20:43;;;;;;;10.70;5.55;;;;;10.40;94125.00;;;;7389283;19;20580;-76
2022/10/14 03:23:11;;;;;;;7.40;5.70;;;;;10.40;94118.00;;;;7393199;19;20155;-75
2022/10/14 03:25:44;;;;;;;10.13;6.20;;;;;10.50;94122.00;;;;7390663;19;20137;-75
2022/10/14 03:28:22;;;;;;;11.85;5.55;;;;;10.60;94110.00;;;;7392150;19;20136;-76
2022/10/14 03:30:56;;;;;;;10.48;6.03;;;;;10.50;94103.00;;;;7390312;19;20509;-75
2022/10/14 03:33:40;;;;;;;12.55;6.07;;;;;10.40;94108.00;;;;7393798;19;20616;-75
2022/10/14 03:36:12;;;;;;;10.80;6.20;;;;;10.50;94106.00;;;;7388568;19;20145;-76
2022/10/14 03:38:45;;;;;;;6.72;5.65;;;;;10.40;94102.00;;;;7386920;19;20148;-75
2022/10/14 03:41:13;;;;;;;8.70;5.82;;;;;10.40;94105.00;;;;7389750;19;20189;-74
2022/10/14 03:43:40;;;;;;;10.90;5.97;;;;;10.50;94106.00;;;;7392935;19;20216;-75
2022/10/14 03:46:17;;;;;;;11.38;5.60;;;;;10.50;94101.00;;;;7390360;19;20152;-75
2022/10/14 03:48:44;;;;;;;9.50;5.40;;;;;10.60;94097.00;;;;7389831;19;20148;-75
2022/10/14 03:51:11;;;;;;;8.23;5.88;;;;;10.60;94101.00;;;;7391154;19;20149;-75
2022/10/14 03:53:45;;;;;;;9.73;6.18;;;;;10.60;94096.00;;;;7388461;19;20148;-75
2022/10/14 03:56:12;;;;;;;10.10;6.30;;;;;10.60;94092.00;;;;7392782;19;20621;-75
2022/10/14 03:58:40;;;;;;;9.25;6.50;;;;;10.60;94085.00;;;;7386044;19;20514;-75
2022/10/14 04:01:18;;;;;;;13.30;5.88;;;;;10.80;94086.00;;;;7389316;19;20141;-74
2022/10/14 04:03:46;;;;;;;9.98;5.85;;;;;10.60;94084.00;;;;7392611;19;20585;-75
2022/10/14 04:06:14;;;;;;;9.35;5.85;;;;;10.70;94084.00;;;;7387389;19;20132;-75
2022/10/14 04:08:48;;;;;;;12.30;6.18;;;;;10.60;94074.00;;;;7390487;19;20139;-74
2022/10/14 04:11:16;;;;;;;8.68;6.68;;;;;10.60;94078.00;;;;7391320;19;20461;-75
2022/10/14 04:13:44;;;;;;;11.27;6.22;;;;;10.70;94075.00;;;;7389323;19;20145;-76
2022/10/14 04:16:19;;;;;;;11.60;6.10;;;;;10.60;94068.00;;;;7395435;19;20611;-75
2022/10/14 04:18:46;;;;;;;10.43;6.68;;;;;10.60;94076.00;;;;7395400;19;20511;-76
2022/10/14 04:21:19;;;;;;;9.60;6.55;;;;;10.60;94071.00;;;;7394564;19;20136;-75
2022/10/14 04:23:57;;;;;;;9.88;6.43;;;;;10.60;94074.00;;;;7395322;19;20648;-75
2022/10/14 04:26:24;;;;;;;10.52;6.15;;;;;10.60;94072.00;;;;7395282;19;20125;-75
2022/10/14 04:28:53;;;;;;;10.65;6.13;;;;;10.60;94074.00;;;;7396605;19;20129;-76
2022/10/14 04:31:34;;;;;;;10.00;6.50;;;;;10.60;94079.00;;;;7391721;19;20172;-75
2022/10/14 04:34:20;;;;;;;10.27;5.93;;;;;10.60;94064.00;;;;7396229;19;20487;-75
2022/10/14 04:36:59;;;;;;;12.77;5.88;;;;;10.60;94065.00;;;;7394342;19;20144;-76
2022/10/14 04:39:26;;;;;;;8.82;5.22;;;;;10.50;94062.00;;;;7393665;19;20167;-76
2022/10/14 04:41:53;;;;;;;9.63;6.18;;;;;10.60;94067.00;;;;7394896;19;20154;-75
2022/10/14 04:44:32;;;;;;;9.35;6.55;;;;;10.50;94063.00;;;;7396382;19;20153;-76
2022/10/14 04:47:02;;;;;;;11.45;5.72;;;;;10.50;94065.00;;;;7398022;19;20475;-76
2022/10/14 04:49:30;;;;;;;12.65;7.07;;;;;10.60;94067.00;;;;7394628;19;20161;-75
2022/10/14 04:52:03;;;;;;;9.00;5.85;;;;;10.70;94055.00;;;;7396372;19;20175;-75
2022/10/14 04:54:34;;;;;;;11.57;6.43;;;;;10.70;94058.00;;;;7393348;19;20165;-76
2022/10/14 04:57:01;;;;;;;10.88;6.32;;;;;10.70;94050.00;;;;7396469;19;20160;-75
2022/10/14 04:59:35;;;;;;;11.85;6.65;;;;;10.70;94044.00;;;;7392670;19;20138;-75
2022/10/14 05:02:05;;;;;;;10.02;6.50;;;;;10.70;94047.00;;;;7394549;19;20121;-75
2022/10/14 05:04:33;;;;;;;16.33;7.10;;;;;10.70;94036.00;;;;7396214;19;20141;-75
2022/10/14 05:07:07;;;;;;;12.07;6.72;;;;;10.60;94037.00;;;;7395451;19;20139;-76
2022/10/14 05:09:37;;;;;;;9.35;6.43;;;;;10.60;94039.00;;;;7393009;19;20196;-75
2022/10/14 05:12:09;;;;;;;13.82;6.78;;;;;10.60;94027.00;;;;7395686;19;20128;-75
2022/10/14 05:14:45;;;;;;;13.73;6.45;;;;;10.60;94027.00;;;;7395291;19;20150;-76
2022/10/14 05:17:13;;;;;;;11.30;6.68;;;;;10.60;94029.00;;;;7395420;19;20136;-76
2022/10/14 05:19:40;;;;;;;15.15;6.28;;;;;10.60;94032.00;;;;7391197;19;20196;-76
2022/10/14 05:22:14;;;;;;;14.73;6.45;;;;;10.70;94034.00;;;;7395980;19;20151;-76
2022/10/14 05:24:44;;;;;;;12.95;6.43;;;;;10.70;94032.00;;;;7391601;19;20141;-76
2022/10/14 05:27:12;;;;;;;9.60;6.95;;;;;10.70;94020.00;;;;7395156;19;20608;-75
2022/10/14 05:29:59;;;;;;;9.80;7.13;;;;;10.70;94021.00;;;;7393640;19;20187;-76
2022/10/14 05:32:34;;;;;;;12.45;6.85;;;;;10.70;94014.00;;;;7394641;19;20133;-76
2022/10/14 05:35:11;;;;;;;12.77;6.95;;;;;10.70;94010.00;;;;7397400;19;20132;-77
2022/10/14 05:37:41;;;;;;;16.20;6.78;;;;;10.70;94018.00;;;;7391988;19;20139;-76
2022/10/14 05:40:10;;;;;;;13.00;6.45;;;;;10.80;94010.00;;;;7394259;19;20631;-76
2022/10/14 05:42:44;;;;;;;9.45;6.68;;;;;10.80;94010.00;;;;7395470;19;20150;-76
2022/10/14 05:45:11;;;;;;;13.07;6.65;;;;;10.80;94005.00;;;;7392806;19;20572;-75
2022/10/14 05:47:39;;;;;;;12.57;6.97;;;;;10.80;94007.00;;;;7395985;19;20149;-76
2022/10/14 05:50:13;;;;;;;12.07;6.57;;;;;10.80;94008.00;;;;7391688;19;20737;-76
2022/10/14 05:52:41;;;;;;;8.95;6.53;;;;;10.80;94014.00;;;;7393726;19;20674;-75
2022/10/14 05:55:09;;;;;;;9.40;6.65;;;;;10.80;94007.00;;;;7398411;19;20632;-76
2022/10/14 05:57:43;;;;;;;9.60;7.00;;;;;10.80;94016.00;;;;7392906;19;20491;-76
2022/10/14 06:00:12;;;;;;;14.35;6.90;;;;;10.80;94012.00;;;;7393181;19;20143;-76
2022/10/14 06:02:42;;;;;;;8.13;6.00;;;;;10.90;94013.00;;;;7393342;19;20510;-76
2022/10/14 06:05:16;;;;;;;10.98;6.75;;;;;10.90;94009.00;;;;7395866;19;20493;-76
2022/10/14 06:07:43;;;;;;;9.95;6.18;;;;;11.00;94011.00;;;;7396073;19;20534;-75
2022/10/14 06:10:10;;;;;;;11.43;6.28;;;;;10.90;94010.00;;;;7390645;19;20140;-76
2022/10/14 06:12:47;;;;;;;9.95;6.00;;;;;10.90;94004.00;;;;7394272;19;20923;-76
2022/10/14 06:15:14;;;;;;;8.18;6.35;;;;;10.90;94003.00;;;;7390996;19;20135;-75
2022/10/14 06:17:44;;;;;;;10.65;5.80;;;;;10.90;94006.00;;;;7395479;19;20156;-75
2022/10/14 06:20:18;;;;;;;12.88;6.47;;;;;10.90;94013.00;;;;7391958;19;20156;-76
2022/10/14 06:22:48;;;;;;;13.70;6.50;;;;;11.00;94006.00;;;;7391968;19;20137;-76
2022/10/14 06:25:15;;;;;;;12.13;7.05;;;;;11.10;94016.00;;;;7395523;19;20125;-76
2022/10/14 06:27:49;;;;;;;11.10;6.63;;;;;11.10;94010.00;;;;7393423;19;20149;-76
2022/10/14 06:30:40;;;;;;;13.60;6.85;;;;;11.30;94008.00;;;;7389902;19;20236;-75
2022/10/14 06:33:14;;;;;;;9.52;6.45;;;;;11.30;94005.00;;;;7391863;19;20600;-75
2022/10/14 06:35:44;;;;;;;8.05;5.85;;;;;11.30;94012.00;;;;7391315;19;20145;-75
2022/10/14 06:38:12;;;;;;;10.73;6.28;;;;;11.30;94010.00;;;;7393550;19;20149;-76
2022/10/14 06:40:48;;;;;;;10.48;6.40;;;;;11.30;94010.00;;;;7394390;19;20484;-76
2022/10/14 06:43:15;;;;;;;10.10;6.30;;;;;11.30;94014.00;;;;7392455;19;20133;-76
2022/10/14 06:45:43;;;;;;;9.38;5.95;;;;;11.30;94018.00;;;;7397003;19;20132;-77
2022/10/14 06:48:17;;;;;;;7.60;5.63;;;;;11.40;94011.00;;;;7395973;19;20145;-75
2022/10/14 06:50:44;;;;;;;10.40;5.57;;;;;11.40;94008.00;;;;7391662;19;20467;-75
2022/10/14 06:53:12;;;;;;;8.05;6.10;;;;;11.50;94006.00;;;;7396700;19;20152;-76
2022/10/14 06:55:48;;;;;;;13.38;6.75;;;;;11.40;93999.00;;;;7394087;19;20134;-75
2022/10/14 06:58:16;;;;;;;14.32;6.53;;;;;11.50;94012.00;;;;7394672;19;20129;-76
2022/10/14 07:00:43;;;;;;;11.50;6.63;;;;;11.60;94009.00;;;;7390955;19;20178;-75
2022/10/14 07:03:18;;;;;;;6.55;5.82;;;;;11.70;94000.00;;;;7393082;19;20144;-76
2022/10/14 07:05:50;;;;;;;9.55;6.32;;;;;11.70;93998.00;;;;7396914;19;20132;-76
2022/10/14 07:08:18;;;;;;;11.13;6.30;;;;;11.80;93995.00;;;;7392241;19;20611;-75
2022/10/14 07:10:52;;;;;;;8.52;5.25;;;;;12.00;93995.00;;;;7392276;19;20129;-75
2022/10/14 07:13:19;;;;;;;7.25;5.20;;;;;11.90;94001.00;;;;7390338;19;20204;-75
2022/10/14 07:15:48;;;;;;;11.23;5.55;;;;;11.90;93999.00;;;;7392011;19;20173;-76
2022/10/14 07:18:23;;;;;;;8.80;4.95;;;;;12.00;94000.00;;;;7394820;19;20147;-75
2022/10/14 07:20:51;;;;;;;6.97;5.00;;;;;12.10;94006.00;;;;7388725;19;20969;-75
2022/10/14 07:23:20;;;;;;;14.68;5.15;;;;;12.20;94000.00;;;;7388742;19;20140;-76
2022/10/14 07:25:58;;;;;;;8.70;5.80;;;;;12.30;94006.00;;;;7393644;19;20143;-75
2022/10/14 07:28:26;;;;;;;8.98;5.40;;;;;12.50;93995.00;;;;7393525;19;20155;-76
2022/10/14 07:31:08;;;;;;;7.50;4.88;;;;;12.30;94006.00;;;;7391475;19;20149;-75
2022/10/14 07:33:48;;;;;;;8.45;4.85;;;;;12.40;94009.00;;;;7391207;19;20157;-74
2022/10/14 07:36:17;;;;;;;7.03;4.45;;;;;12.30;94007.00;;;;7389837;19;20133;-74
2022/10/14 07:38:51;;;;;;;7.10;4.72;;;;;12.60;94005.00;;;;7393746;19;20683;-74
2022/10/14 07:41:22;;;;;;;7.55;4.80;;;;;12.40;94007.00;;;;7387466;19;20762;-74
2022/10/14 07:43:57;;;;;;;7.13;4.20;;;;;12.40;93996.00;;;;7392107;19;20132;-75
2022/10/14 07:46:37;;;;;;;5.38;4.15;;;;;12.30;94001.00;;;;7385681;19;20607;-76
2022/10/14 07:49:08;;;;;;;6.75;4.05;;;;;12.40;94003.00;;;;7392844;19;20154;-74
2022/10/14 07:51:42;;;;;;;6.65;4.07;;;;;12.50;94006.00;;;;7392300;19;20639;-74
2022/10/14 07:54:16;;;;;;;6.57;3.47;;;;;12.60;94003.00;;;;7398047;19;20208;-75
2022/10/14 07:56:51;;;;;;;10.10;3.70;;;;;12.70;94005.00;;;;7397401;19;20149;-74
2022/10/14 07:59:20;;;;;;;5.47;3.13;;;;;12.80;94001.00;;;;7400329;19;20144;-73
2022/10/14 08:01:49;;;;;;;6.10;3.53;;;;;12.80;94000.00;;;;7400239;19;20160;-75
2022/10/14 08:04:27;;;;;;;5.50;3.40;;;;;12.90;94000.00;;;;7397210;19;20163;-74
2022/10/14 08:06:55;;;;;;;3.95;3.50;;;;;12.90;93993.00;;;;7399680;19;20148;-73
2022/10/14 08:09:27;;;;;;;6.25;3.33;;;;;13.00;93996.00;;;;7395917;19;20136;-75
2022/10/14 08:12:01;;;;;;;5.60;3.38;;;;;13.10;93993.00;;;;7393805;19;20121;-74
2022/10/14 08:14:34;;;;;;;5.45;3.50;;;;;13.20;93989.00;;;;7399799;19;20595;-75
2022/10/14 08:17:04;;;;;;;6.07;3.60;;;;;13.30;93992.00;;;;7397326;19;20141;-75
2022/10/14 08:19:44;;;;;;;6.10;3.75;;;;;13.30;93987.00;;;;7396230;19;20147;-74
2022/10/14 08:22:11;;;;;;;9.52;3.58;;;;;13.20;93995.00;;;;7397471;19;20616;-75
2022/10/14 08:24:41;;;;;;;7.72;3.95;;;;;13.30;93990.00;;;;7399254;19;20148;-74
2022/10/14 08:27:20;;;;;;;7.22;3.92;;;;;13.30;93995.00;;;;7395305;19;20144;-74
2022/10/14 08:29:47;;;;;;;9.30;3.90;;;;;13.40;93995.00;;;;7398448;19;20231;-74
2022/10/14 08:32:15;;;;;;;6.93;4.10;;;;;13.40;93996.00;;;;7395156;19;20560;-75
2022/10/14 08:34:49;;;;;;;7.60;4.03;;;;;13.30;93986.00;;;;7397819;19;20141;-74
2022/10/14 08:37:21;;;;;;;6.95;4.22;;;;;13.30;93995.00;;;;7397963;19;20136;-75
2022/10/14 08:39:48;;;;;;;9.43;3.95;;;;;13.30;93986.00;;;;7400181;19;20140;-75
2022/10/14 08:42:32;;;;;;;6.10;4.20;;;;;13.40;93991.00;;;;7393297;19;20148;-73
2022/10/14 08:45:23;;;;;;;9.73;4.63;;;;;13.30;93994.00;;;;7399571;19;20172;-74
2022/10/14 08:48:03;;;;;;;4.90;4.10;;;;;13.30;93993.00;;;;7396676;19;20495;-74
2022/10/14 08:50:45;;;;;;;8.50;4.20;;;;;13.30;93997.00;;;;7398372;19;20147;-75
2022/10/14 08:53:31;;;;;;;4.72;3.83;;;;;13.50;93994.00;;;;7395555;19;20156;-75
2022/10/14 08:56:00;;;;;;;7.72;3.80;;;;;13.60;93996.00;;;;7397625;19;20137;-74
2022/10/14 08:58:48;;;;;;;6.93;3.65;;;;;13.80;93997.00;;;;7390588;19;20148;-74
2022/10/14 09:01:28;;;;;;;9.55;3.88;;;;;14.20;93991.00;;;;7393650;19;20145;-74
2022/10/14 09:04:05;;;;;;;8.75;4.35;;;;;14.50;93981.00;;;;7394530;19;20121;-74
2022/10/14 09:06:37;;;;;;;5.90;3.80;;;;;14.80;93980.00;;;;7396566;19;20139;-75
2022/10/14 09:09:36;;;;;;;8.13;4.07;;;;;15.00;93978.00;;;;7395188;19;20133;-75
2022/10/14 09:12:10;;;;;;;7.32;3.78;;;;;14.80;93974.00;;;;7391370;19;20141;-75
2022/10/14 09:14:50;;;;;;;4.70;3.55;;;;;14.80;93969.00;;;;7394442;19;20904;-73
2022/10/14 09:17:30;;;;;;;6.55;3.05;;;;;15.10;93969.00;;;;7395481;19;20169;-76
2022/10/14 09:20:22;;;;;;;10.05;3.30;;;;;15.00;93975.00;;;;7395465;19;20125;-74
2022/10/14 09:23:16;;;;;;;4.43;2.85;;;;;15.00;93965.00;;;;7393215;19;20184;-75
2022/10/14 09:25:59;;;;;;;5.05;2.85;;;;;15.20;93966.00;;;;7395939;19;20141;-75
2022/10/14 09:28:39;;;;;;;5.13;2.60;;;;;15.70;93968.00;;;;7393710;19;20151;-75
2022/10/14 09:31:21;;;;;;;3.08;2.65;;;;;15.60;93972.00;;;;7391996;19;20164;-76
2022/10/14 09:33:55;;;;;;;2.92;2.35;;;;;15.30;93979.00;;;;7394259;19;20572;-74
2022/10/14 09:36:29;;;;;;;3.55;2.35;;;;;14.90;93973.00;;;;7392680;19;20588;-75
2022/10/14 09:38:57;;;;;;;4.13;2.00;;;;;14.80;93974.00;;;;7394444;19;20153;-74
2022/10/14 09:41:32;;;;;;;2.97;2.30;;;;;14.80;93972.00;;;;7392265;19;20116;-76
2022/10/14 09:44:21;;;;;;;4.60;2.35;;;;;14.60;93969.00;;;;7393355;19;21131;-75
2022/10/14 09:47:04;;;;;;;3.70;2.20;;;;;14.60;93971.00;;;;7390779;19;20588;-78
2022/10/14 09:49:47;;;;;;;4.28;2.15;;;;;14.50;93967.00;;;;7394772;19;20196;-75
2022/10/14 09:52:23;;;;;;;5.90;2.33;;;;;14.60;93978.00;;;;7394943;19;20178;-76
2022/10/14 09:55:00;;;;;;;5.35;2.60;;;;;14.40;93976.00;;;;7389714;19;20476;-75
2022/10/14 09:57:28;;;;;;;3.60;2.75;;;;;14.60;93967.00;;;;7388403;19;20164;-77
2022/10/14 10:00:02;;;;;;;4.05;2.42;;;;;14.60;93967.00;;;;7390536;19;20162;-74
2022/10/14 10:02:43;;;;;;;4.95;2.30;;;;;14.70;93961.00;;;;7385777;19;20160;-74
2022/10/14 10:05:28;;;;;;;5.00;2.47;;;;;14.90;93961.00;;;;7389277;19;20156;-75
2022/10/14 10:08:16;;;;;;;6.90;2.70;;;;;14.90;93958.00;;;;7388631;19;20150;-73
2022/10/14 10:11:03;;;;;;;2.83;2.05;;;;;14.80;93952.00;;;;7386066;19;20177;-74
2022/10/14 10:13:47;;;;;;;4.63;2.40;;;;;14.70;93953.00;;;;7383323;19;20149;-74
2022/10/14 10:16:21;;;;;;;4.18;2.22;;;;;14.60;93954.00;;;;7387345;19;20621;-74
2022/10/14 10:18:56;;;;;;;3.58;2.60;;;;;14.60;93957.00;;;;7385871;19;20133;-75
2022/10/14 10:21:28;;;;;;;6.97;2.40;;;;;14.60;93949.00;;;;7387918;19;20151;-77
2022/10/14 10:24:16;;;;;;;4.45;2.38;;;;;14.40;93947.00;;;;7386826;19;20148;-75
2022/10/14 10:26:43;;;;;;;6.88;2.42;;;;;14.40;93954.00;;;;7385221;19;20137;-75
2022/10/14 10:29:24;;;;;;;5.05;2.17;;;;;14.30;93949.00;;;;7392357;19;20127;-75
2022/10/14 10:32:11;;;;;;;5.38;2.50;;;;;14.20;93958.00;;;;7382628;19;20202;-75
2022/10/14 10:34:57;;;;;;;4.30;2.60;;;;;14.10;93950.00;;;;7388476;19;20131;-77
2022/10/14 10:37:32;;;;;;;3.50;2.30;;;;;14.00;93940.00;;;;7388985;19;20147;-75
2022/10/14 10:40:38;;;;;;;5.32;2.88;;;;;13.70;93941.00;;;;7389829;19;20914;-76
2022/10/14 10:43:18;;;;;;;4.85;2.80;;;;;13.60;93935.00;;;;7385464;19;20144;-76
2022/10/14 10:46:22;;;;;;;4.65;2.80;;;;;13.50;93937.00;;;;7387815;19;20156;-74
2022/10/14 10:49:18;;;;;;;5.32;3.20;;;;;13.80;93940.00;;;;7387363;19;20148;-76
2022/10/14 10:52:15;;;;;;;3.95;2.83;;;;;13.70;93937.00;;;;7385953;19;20179;-75
2022/10/14 10:55:15;;;;;;;3.88;2.95;;;;;13.80;93934.00;;;;7385156;19;20133;-75
2022/10/14 10:57:58;;;;;;;4.60;3.40;;;;;13.60;93929.00;;;;7387406;19;20615;-75
2022/10/14 11:00:44;;;;;;;3.70;3.25;;;;;13.70;93923.00;;;;7384461;19;20153;-74
2022/10/14 11:03:34;;;;;;;5.07;3.40;;;;;13.70;93928.00;;;;7387466;19;20133;-75
2022/10/14 11:12:01;;;;;;;5.80;3.20;;;;;13.90;93910.00;;;;7384285;19;20591;-75
2022/10/14 11:12:44;;;;;;;5.53;3.45;;;;;14.30;93888.00;;;;7384357;19;20125;-75
2022/10/14 11:15:53;;;;;;;7.30;3.13;;;;;14.30;93889.00;;;;7386313;19;20137;-74
2022/10/14 11:18:21;;;;;;;6.50;3.83;;;;;14.70;93887.00;;;;7385303;19;20170;-74
2022/10/14 11:21:01;;;;;;;6.65;3.08;;;;;14.90;93878.00;;;;7388656;19;20140;-75
2022/10/14 11:24:06;;;;;;;5.00;2.88;;;;;15.30;93872.00;;;;7389092;19;20160;-74
2022/10/14 11:27:09;;;;;;;6.47;2.85;;;;;15.70;93870.00;;;;7391143;19;20147;-74
2022/10/14 11:30:07;;;;;;;4.55;2.70;;;;;16.00;93874.00;;;;7395949;19;20149;-74
2022/10/14 11:33:23;;;;;;;2.40;2.20;;;;;16.00;93858.00;;;;7388993;19;20156;-75
2022/10/14 11:36:13;;;;;;;4.10;2.50;;;;;15.80;93858.00;;;;7395252;19;20156;-73
2022/10/14 11:39:01;;;;;;;3.88;2.58;;;;;15.80;93852.00;;;;7393331;19;20149;-75
2022/10/14 11:41:52;;;;;;;6.07;2.35;;;;;15.80;93862.00;;;;7390766;19;20515;-74
2022/10/14 11:44:42;;;;;;;2.78;2.40;;;;;16.00;93853.00;;;;7392948;19;20193;-74
2022/10/14 11:47:17;;;;;;;4.45;2.30;;;;;16.10;93858.00;;;;7392489;19;20145;-74
2022/10/14 11:50:20;;;;;;;2.38;2.10;;;;;16.30;93849.00;;;;7392252;19;20188;-73
2022/10/14 11:52:53;;;;;;;2.03;1.80;;;;;16.00;93847.00;;;;7389653;19;20159;-75
2022/10/14 11:55:37;;;;;;;3.95;1.90;;;;;16.10;93843.00;;;;7393876;19;20650;-75
2022/10/14 11:58:19;;;;;;;4.78;1.90;;;;;16.00;93839.00;;;;7392110;19;20456;-75
2022/10/14 12:00:55;;;;;;;2.70;1.80;;;;;15.80;93816.00;;;;7391759;19;20170;-75
2022/10/14 12:03:47;;;;;;;2.47;1.70;;;;;15.70;93827.00;;;;7392079;19;20866;-77
2022/10/14 12:06:26;;;;;;;2.75;1.67;;;;;15.90;93831.00;;;;7389738;19;20176;-77
2022/10/14 12:09:12;;;;;;;2.22;1.80;;;;;16.00;93826.00;;;;7392146;19;20152;-78
2022/10/14 12:11:56;;;;;;;1.55;1.27;;;;;15.90;93826.00;;;;7392385;19;20495;-75
2022/10/14 12:14:31;;;;;;;1.55;1.45;;;;;15.90;93836.00;;;;7394435;19;20152;-74
2022/10/14 12:17:16;;;;;;;4.28;1.63;;;;;16.00;93827.00;;;;7395461;19;20611;-75
2022/10/14 12:19:45;;;;;;;2.35;1.58;;;;;15.90;93819.00;;;;7389313;19;20135;-74
2022/10/14 12:22:24;;;;;;;2.05;1.50;;;;;16.00;93815.00;;;;7391109;19;20636;-75
2022/10/14 12:25:06;;;;;;;2.38;1.67;;;;;16.00;93829.00;;;;7393248;19;20136;-76
2022/10/14 12:27:49;;;;;;;2.95;1.58;;;;;15.90;93818.00;;;;7394713;19;20132;-76
2022/10/14 12:30:40;;;;;;;1.95;1.58;;;;;15.90;93802.00;;;;7393218;19;20184;-76
2022/10/14 12:33:21;;;;;;;3.17;1.50;;;;;16.10;93804.00;;;;7392686;19;20235;-74
2022/10/14 12:35:59;;;;;;;2.05;1.75;;;;;16.30;93811.00;;;;7388606;19;20156;-75
2022/10/14 12:38:35;;;;;;;1.23;1.13;;;;;16.10;93803.00;;;;7393683;19;20618;-74
2022/10/14 12:41:31;;;;;;;3.38;1.25;;;;;16.00;93813.00;;;;7388478;19;20152;-75
2022/10/14 12:44:17;;;;;;;1.70;1.30;;;;;16.10;93809.00;;;;7391763;19;20150;-75
2022/10/14 12:46:48;;;;;;;1.77;1.42;;;;;16.20;93810.00;;;;7391582;19;20662;-74
2022/10/14 12:49:35;;;;;;;3.53;1.00;;;;;16.30;93809.00;;;;7390606;19;20148;-74
2022/10/14 12:52:06;;;;;;;1.10;1.08;;;;;16.10;93820.00;;;;7390094;19;20240;-75
2022/10/14 12:54:46;;;;;;;2.55;1.10;;;;;16.20;93808.00;;;;7387311;19;20209;-75
2022/10/14 12:57:30;;;;;;;1.48;1.23;;;;;16.20;93821.00;;;;7390559;19;20226;-76
2022/10/14 13:00:30;;;;;;;0.82;0.77;;;;;16.50;93813.00;;;;7389783;19;20591;-74
2022/10/14 13:03:05;;;;;;;1.83;1.00;;;;;16.70;93816.00;;;;7392041;19;20129;-76
2022/10/14 13:05:44;;;;;;;3.28;1.13;;;;;16.60;93819.00;;;;7389247;19;20152;-74
2022/10/14 13:08:24;;;;;;;1.30;1.10;;;;;16.30;93820.00;;;;7391087;19;20149;-74